sensor_id;sensor_type;location;lat;lon;timestamp;temperature;humidity
67572;SHT31;54397;47.506;19.158;2024-03-25T00:01:21;9.67;60.68
67572;SHT31;54397;47.506;19.158;2024-03-25T00:04:45;9.47;61.20
67572;SHT31;54397;47.506;19.158;2024-03-25T00:08:05;9.39;61.22
67572;SHT31;54397;47.506;19.158;2024-03-25T00:11:32;9.30;61.10
67572;SHT31;54397;47.506;19.158;2024-03-25T00:14:52;9.61;60.22
67572;SHT31;54397;47.506;19.158;2024-03-25T00:18:13;9.51;60.35
67572;SHT31;54397;47.506;19.158;2024-03-25T00:21:36;8.84;61.51
67572;SHT31;54397;47.506;19.158;2024-03-25T00:24:57;8.98;61.54
67572;SHT31;54397;47.506;19.158;2024-03-25T00:28:18;8.88;61.86
67572;SHT31;54397;47.506;19.158;2024-03-25T00:31:41;8.70;61.81
67572;SHT31;54397;47.506;19.158;2024-03-25T00:35:02;8.78;62.46
67572;SHT31;54397;47.506;19.158;2024-03-25T00:38:25;9.11;61.67
67572;SHT31;54397;47.506;19.158;2024-03-25T00:41:46;9.14;61.82
67572;SHT31;54397;47.506;19.158;2024-03-25T00:45:07;9.23;61.32
67572;SHT31;54397;47.506;19.158;2024-03-25T00:48:28;9.33;61.03
67572;SHT31;54397;47.506;19.158;2024-03-25T00:51:51;9.14;61.17
67572;SHT31;54397;47.506;19.158;2024-03-25T00:55:15;9.27;61.43
67572;SHT31;54397;47.506;19.158;2024-03-25T00:58:36;9.39;60.82
67572;SHT31;54397;47.506;19.158;2024-03-25T01:01:56;9.40;60.86
67572;SHT31;54397;47.506;19.158;2024-03-25T01:05:18;9.40;60.93
67572;SHT31;54397;47.506;19.158;2024-03-25T01:08:38;9.50;60.82
67572;SHT31;54397;47.506;19.158;2024-03-25T01:11:59;9.46;60.98
67572;SHT31;54397;47.506;19.158;2024-03-25T01:15:20;9.56;60.99
67572;SHT31;54397;47.506;19.158;2024-03-25T01:18:43;9.46;61.04
67572;SHT31;54397;47.506;19.158;2024-03-25T01:22:04;9.33;61.44
67572;SHT31;54397;47.506;19.158;2024-03-25T01:25:25;9.22;61.51
67572;SHT31;54397;47.506;19.158;2024-03-25T01:28:48;9.25;61.79
67572;SHT31;54397;47.506;19.158;2024-03-25T01:32:09;9.33;61.41
67572;SHT31;54397;47.506;19.158;2024-03-25T01:35:30;9.19;61.48
67572;SHT31;54397;47.506;19.158;2024-03-25T01:38:50;9.39;61.01
67572;SHT31;54397;47.506;19.158;2024-03-25T01:42:11;9.09;62.12
67572;SHT31;54397;47.506;19.158;2024-03-25T01:45:34;9.26;61.53
67572;SHT31;54397;47.506;19.158;2024-03-25T01:48:55;9.11;61.80
67572;SHT31;54397;47.506;19.158;2024-03-25T01:52:19;9.14;61.49
67572;SHT31;54397;47.506;19.158;2024-03-25T01:55:43;9.08;62.16
67572;SHT31;54397;47.506;19.158;2024-03-25T01:59:04;9.09;62.55
67572;SHT31;54397;47.506;19.158;2024-03-25T02:02:25;8.88;62.92
67572;SHT31;54397;47.506;19.158;2024-03-25T02:05:46;8.82;62.67
67572;SHT31;54397;47.506;19.158;2024-03-25T02:09:09;8.78;62.96
67572;SHT31;54397;47.506;19.158;2024-03-25T02:12:31;8.60;63.31
67572;SHT31;54397;47.506;19.158;2024-03-25T02:15:55;8.89;62.39
67572;SHT31;54397;47.506;19.158;2024-03-25T02:19:16;8.85;62.45
67572;SHT31;54397;47.506;19.158;2024-03-25T02:22:37;8.53;63.24
67572;SHT31;54397;47.506;19.158;2024-03-25T02:25:58;8.46;63.93
67572;SHT31;54397;47.506;19.158;2024-03-25T02:29:19;8.43;63.87
67572;SHT31;54397;47.506;19.158;2024-03-25T02:32:40;8.43;64.00
67572;SHT31;54397;47.506;19.158;2024-03-25T02:36:01;8.34;64.36
67572;SHT31;54397;47.506;19.158;2024-03-25T02:39:22;8.40;64.53
67572;SHT31;54397;47.506;19.158;2024-03-25T02:42:45;8.43;63.60
67572;SHT31;54397;47.506;19.158;2024-03-25T02:46:06;8.39;64.49
67572;SHT31;54397;47.506;19.158;2024-03-25T02:49:27;8.50;64.27
67572;SHT31;54397;47.506;19.158;2024-03-25T02:52:50;8.54;63.86
67572;SHT31;54397;47.506;19.158;2024-03-25T02:56:13;8.40;64.09
67572;SHT31;54397;47.506;19.158;2024-03-25T02:59:36;8.44;63.57
67572;SHT31;54397;47.506;19.158;2024-03-25T03:02:57;8.41;64.00
67572;SHT31;54397;47.506;19.158;2024-03-25T03:06:18;8.30;64.23
67572;SHT31;54397;47.506;19.158;2024-03-25T03:09:39;8.30;64.34
67572;SHT31;54397;47.506;19.158;2024-03-25T03:13:00;8.46;63.76
67572;SHT31;54397;47.506;19.158;2024-03-25T03:16:20;8.22;64.94
67572;SHT31;54397;47.506;19.158;2024-03-25T03:19:41;8.34;64.19
67572;SHT31;54397;47.506;19.158;2024-03-25T03:23:02;8.32;63.91
67572;SHT31;54397;47.506;19.158;2024-03-25T03:26:25;8.37;64.17
67572;SHT31;54397;47.506;19.158;2024-03-25T03:29:47;8.33;64.23
67572;SHT31;54397;47.506;19.158;2024-03-25T03:33:08;8.22;64.82
67572;SHT31;54397;47.506;19.158;2024-03-25T03:36:31;8.10;65.11
67572;SHT31;54397;47.506;19.158;2024-03-25T03:39:54;8.40;69.32
67572;SHT31;54397;47.506;19.158;2024-03-25T03:43:15;8.75;73.78
67572;SHT31;54397;47.506;19.158;2024-03-25T03:46:38;8.82;72.64
67572;SHT31;54397;47.506;19.158;2024-03-25T03:49:58;9.08;71.37
67572;SHT31;54397;47.506;19.158;2024-03-25T03:53:20;9.20;70.96
67572;SHT31;54397;47.506;19.158;2024-03-25T03:56:43;9.29;71.35
67572;SHT31;54397;47.506;19.158;2024-03-25T04:00:07;9.33;62.96
67572;SHT31;54397;47.506;19.158;2024-03-25T04:03:28;9.25;62.76
67572;SHT31;54397;47.506;19.158;2024-03-25T04:06:51;9.09;63.05
67572;SHT31;54397;47.506;19.158;2024-03-25T04:10:12;8.93;63.58
67572;SHT31;54397;47.506;19.158;2024-03-25T04:13:33;8.84;64.01
67572;SHT31;54397;47.506;19.158;2024-03-25T04:16:59;8.68;64.86
67572;SHT31;54397;47.506;19.158;2024-03-25T04:20:23;8.70;64.99
67572;SHT31;54397;47.506;19.158;2024-03-25T04:23:46;8.65;65.27
67572;SHT31;54397;47.506;19.158;2024-03-25T04:27:07;8.53;65.55
67572;SHT31;54397;47.506;19.158;2024-03-25T04:30:28;8.68;65.17
67572;SHT31;54397;47.506;19.158;2024-03-25T04:33:51;8.57;65.42
67572;SHT31;54397;47.506;19.158;2024-03-25T04:37:12;8.75;65.03
67572;SHT31;54397;47.506;19.158;2024-03-25T04:40:35;8.68;65.84
67572;SHT31;54397;47.506;19.158;2024-03-25T04:43:56;8.60;65.94
67572;SHT31;54397;47.506;19.158;2024-03-25T04:47:18;8.74;65.63
67572;SHT31;54397;47.506;19.158;2024-03-25T04:50:41;8.77;65.78
67572;SHT31;54397;47.506;19.158;2024-03-25T04:54:01;8.79;65.53
67572;SHT31;54397;47.506;19.158;2024-03-25T04:57:22;8.71;66.32
67572;SHT31;54397;47.506;19.158;2024-03-25T05:00:45;8.56;66.61
67572;SHT31;54397;47.506;19.158;2024-03-25T05:04:06;8.53;66.39
67572;SHT31;54397;47.506;19.158;2024-03-25T05:07:32;8.67;64.77
67572;SHT31;54397;47.506;19.158;2024-03-25T05:10:52;8.74;63.59
67572;SHT31;54397;47.506;19.158;2024-03-25T05:14:16;8.97;62.94
67572;SHT31;54397;47.506;19.158;2024-03-25T05:17:36;8.72;62.42
67572;SHT31;54397;47.506;19.158;2024-03-25T05:21:01;8.88;62.94
67572;SHT31;54397;47.506;19.158;2024-03-25T05:24:22;8.77;62.29
67572;SHT31;54397;47.506;19.158;2024-03-25T05:27:45;8.49;63.99
67572;SHT31;54397;47.506;19.158;2024-03-25T05:31:10;8.75;63.14
67572;SHT31;54397;47.506;19.158;2024-03-25T05:34:33;8.88;62.28
67572;SHT31;54397;47.506;19.158;2024-03-25T05:37:54;8.49;63.10
67572;SHT31;54397;47.506;19.158;2024-03-25T05:41:17;8.46;63.24
67572;SHT31;54397;47.506;19.158;2024-03-25T05:44:37;8.43;63.90
67572;SHT31;54397;47.506;19.158;2024-03-25T05:48:00;8.68;63.61
67572;SHT31;54397;47.506;19.158;2024-03-25T05:51:26;8.65;63.29
67572;SHT31;54397;47.506;19.158;2024-03-25T05:54:47;8.54;64.45
67572;SHT31;54397;47.506;19.158;2024-03-25T05:58:07;8.64;64.18
67572;SHT31;54397;47.506;19.158;2024-03-25T06:01:31;8.95;63.54
67572;SHT31;54397;47.506;19.158;2024-03-25T06:04:52;8.92;64.20
67572;SHT31;54397;47.506;19.158;2024-03-25T06:08:15;8.75;65.45
67572;SHT31;54397;47.506;19.158;2024-03-25T06:11:44;8.82;65.39
67572;SHT31;54397;47.506;19.158;2024-03-25T06:15:05;8.85;65.45
67572;SHT31;54397;47.506;19.158;2024-03-25T06:18:26;8.74;65.85
67572;SHT31;54397;47.506;19.158;2024-03-25T06:21:47;8.50;66.48
67572;SHT31;54397;47.506;19.158;2024-03-25T06:25:11;8.53;66.42
67572;SHT31;54397;47.506;19.158;2024-03-25T06:28:32;8.75;66.10
67572;SHT31;54397;47.506;19.158;2024-03-25T06:31:57;8.92;66.54
67572;SHT31;54397;47.506;19.158;2024-03-25T06:35:37;9.08;65.00
67572;SHT31;54397;47.506;19.158;2024-03-25T06:38:57;8.99;65.32
67572;SHT31;54397;47.506;19.158;2024-03-25T06:42:18;9.35;65.00
67572;SHT31;54397;47.506;19.158;2024-03-25T06:45:42;9.61;64.04
67572;SHT31;54397;47.506;19.158;2024-03-25T06:49:02;9.97;62.80
67572;SHT31;54397;47.506;19.158;2024-03-25T06:52:26;10.28;61.94
67572;SHT31;54397;47.506;19.158;2024-03-25T06:55:57;10.39;61.44
67572;SHT31;54397;47.506;19.158;2024-03-25T06:59:17;10.59;61.22
67572;SHT31;54397;47.506;19.158;2024-03-25T07:02:41;10.61;61.38
67572;SHT31;54397;47.506;19.158;2024-03-25T07:06:02;10.48;61.29
67572;SHT31;54397;47.506;19.158;2024-03-25T07:09:23;9.77;61.57
67572;SHT31;54397;47.506;19.158;2024-03-25T07:12:47;9.57;62.80
67572;SHT31;54397;47.506;19.158;2024-03-25T07:16:08;10.12;61.64
67572;SHT31;54397;47.506;19.158;2024-03-25T07:19:31;10.01;62.99
67572;SHT31;54397;47.506;19.158;2024-03-25T07:22:52;10.33;62.00
67572;SHT31;54397;47.506;19.158;2024-03-25T07:26:15;10.91;61.61
67572;SHT31;54397;47.506;19.158;2024-03-25T07:29:39;11.45;63.15
67572;SHT31;54397;47.506;19.158;2024-03-25T07:33:00;11.54;60.16
67572;SHT31;54397;47.506;19.158;2024-03-25T07:36:23;12.44;61.58
67572;SHT31;54397;47.506;19.158;2024-03-25T07:39:51;13.23;57.57
67572;SHT31;54397;47.506;19.158;2024-03-25T07:43:15;12.80;53.57
67572;SHT31;54397;47.506;19.158;2024-03-25T07:46:36;11.49;55.06
67572;SHT31;54397;47.506;19.158;2024-03-25T07:49:59;11.03;56.28
67572;SHT31;54397;47.506;19.158;2024-03-25T07:53:20;10.79;57.24
67572;SHT31;54397;47.506;19.158;2024-03-25T07:56:40;10.74;57.57
67572;SHT31;54397;47.506;19.158;2024-03-25T08:00:02;10.66;57.57
67572;SHT31;54397;47.506;19.158;2024-03-25T08:03:25;10.77;58.07
67572;SHT31;54397;47.506;19.158;2024-03-25T08:06:48;11.25;56.97
67572;SHT31;54397;47.506;19.158;2024-03-25T08:10:09;11.39;56.56
67572;SHT31;54397;47.506;19.158;2024-03-25T08:13:30;11.19;56.56
67572;SHT31;54397;47.506;19.158;2024-03-25T08:16:51;11.08;57.57
67572;SHT31;54397;47.506;19.158;2024-03-25T08:20:12;10.94;58.06
67572;SHT31;54397;47.506;19.158;2024-03-25T08:23:35;11.00;57.46
67572;SHT31;54397;47.506;19.158;2024-03-25T08:26:56;11.31;56.19
67572;SHT31;54397;47.506;19.158;2024-03-25T08:30:19;11.39;54.93
67572;SHT31;54397;47.506;19.158;2024-03-25T08:33:42;11.55;55.92
67572;SHT31;54397;47.506;19.158;2024-03-25T08:37:04;11.27;55.77
67572;SHT31;54397;47.506;19.158;2024-03-25T08:40:24;11.65;55.06
67572;SHT31;54397;47.506;19.158;2024-03-25T08:43:47;11.75;55.05
67572;SHT31;54397;47.506;19.158;2024-03-25T08:47:08;11.66;54.61
67572;SHT31;54397;47.506;19.158;2024-03-25T08:50:31;12.27;54.65
67572;SHT31;54397;47.506;19.158;2024-03-25T08:53:54;12.03;53.45
67572;SHT31;54397;47.506;19.158;2024-03-25T08:57:17;11.93;54.70
67572;SHT31;54397;47.506;19.158;2024-03-25T09:00:38;11.79;52.75
67572;SHT31;54397;47.506;19.158;2024-03-25T09:04:01;11.80;52.91
67572;SHT31;54397;47.506;19.158;2024-03-25T09:07:22;11.62;53.00
67572;SHT31;54397;47.506;19.158;2024-03-25T09:10:43;11.69;53.34
67572;SHT31;54397;47.506;19.158;2024-03-25T09:14:22;12.05;53.06
67572;SHT31;54397;47.506;19.158;2024-03-25T09:17:43;12.72;52.94
67572;SHT31;54397;47.506;19.158;2024-03-25T09:21:06;12.17;52.34
67572;SHT31;54397;47.506;19.158;2024-03-25T09:24:29;12.31;53.89
67572;SHT31;54397;47.506;19.158;2024-03-25T09:27:51;12.14;51.94
67572;SHT31;54397;47.506;19.158;2024-03-25T09:31:11;12.11;52.47
67572;SHT31;54397;47.506;19.158;2024-03-25T09:34:34;12.28;52.36
67572;SHT31;54397;47.506;19.158;2024-03-25T09:37:55;12.35;52.02
67572;SHT31;54397;47.506;19.158;2024-03-25T09:41:18;12.44;52.91
67572;SHT31;54397;47.506;19.158;2024-03-25T09:44:39;12.18;54.15
67572;SHT31;54397;47.506;19.158;2024-03-25T09:48:00;11.77;54.22
67572;SHT31;54397;47.506;19.158;2024-03-25T09:51:28;11.84;54.46
67572;SHT31;54397;47.506;19.158;2024-03-25T09:54:48;12.08;54.08
67572;SHT31;54397;47.506;19.158;2024-03-25T09:58:09;11.61;53.74
67572;SHT31;54397;47.506;19.158;2024-03-25T10:01:30;11.94;53.67
67572;SHT31;54397;47.506;19.158;2024-03-25T10:04:51;11.86;52.84
67572;SHT31;54397;47.506;19.158;2024-03-25T10:08:19;12.07;52.99
67572;SHT31;54397;47.506;19.158;2024-03-25T10:11:42;12.72;49.55
67572;SHT31;54397;47.506;19.158;2024-03-25T10:15:05;13.71;48.35
67572;SHT31;54397;47.506;19.158;2024-03-25T10:18:29;14.29;45.45
67572;SHT31;54397;47.506;19.158;2024-03-25T10:21:50;14.19;45.18
67572;SHT31;54397;47.506;19.158;2024-03-25T10:28:43;15.23;43.36
67572;SHT31;54397;47.506;19.158;2024-03-25T10:32:04;16.26;50.48
67572;SHT31;54397;47.506;19.158;2024-03-25T10:35:30;15.75;42.91
67572;SHT31;54397;47.506;19.158;2024-03-25T10:39:00;15.64;43.25
67572;SHT31;54397;47.506;19.158;2024-03-25T10:42:23;15.44;45.75
67572;SHT31;54397;47.506;19.158;2024-03-25T10:45:49;16.39;47.17
67572;SHT31;54397;47.506;19.158;2024-03-25T10:49:23;16.67;38.37
67572;SHT31;54397;47.506;19.158;2024-03-25T10:52:47;16.36;40.04
67572;SHT31;54397;47.506;19.158;2024-03-25T10:56:10;15.47;41.07
67572;SHT31;54397;47.506;19.158;2024-03-25T10:59:35;14.91;41.66
67572;SHT31;54397;47.506;19.158;2024-03-25T11:02:59;15.57;42.75
67572;SHT31;54397;47.506;19.158;2024-03-25T11:06:27;16.29;41.46
67572;SHT31;54397;47.506;19.158;2024-03-25T11:09:50;16.69;40.55
67572;SHT31;54397;47.506;19.158;2024-03-25T11:13:12;16.88;38.60
67572;SHT31;54397;47.506;19.158;2024-03-25T11:16:33;16.63;38.73
67572;SHT31;54397;47.506;19.158;2024-03-25T11:20:09;15.13;40.84
67572;SHT31;54397;47.506;19.158;2024-03-25T11:23:43;14.23;46.39
67572;SHT31;54397;47.506;19.158;2024-03-25T11:27:08;13.93;46.78
67572;SHT31;54397;47.506;19.158;2024-03-25T11:30:29;13.51;51.43
67572;SHT31;54397;47.506;19.158;2024-03-25T11:33:51;13.47;54.24
67572;SHT31;54397;47.506;19.158;2024-03-25T11:37:15;13.54;54.57
67572;SHT31;54397;47.506;19.158;2024-03-25T11:40:42;13.34;53.83
67572;SHT31;54397;47.506;19.158;2024-03-25T11:44:03;13.10;54.72
67572;SHT31;54397;47.506;19.158;2024-03-25T11:47:24;13.24;55.29
67572;SHT31;54397;47.506;19.158;2024-03-25T11:50:46;13.44;53.55
67572;SHT31;54397;47.506;19.158;2024-03-25T11:54:10;13.13;52.33
67572;SHT31;54397;47.506;19.158;2024-03-25T11:57:31;13.07;51.27
67572;SHT31;54397;47.506;19.158;2024-03-25T12:00:52;12.97;51.09
67572;SHT31;54397;47.506;19.158;2024-03-25T12:04:17;13.04;50.64
67572;SHT31;54397;47.506;19.158;2024-03-25T12:07:38;14.05;55.37
67572;SHT31;54397;47.506;19.158;2024-03-25T12:11:01;14.77;51.71
67572;SHT31;54397;47.506;19.158;2024-03-25T12:14:40;15.57;50.22
67572;SHT31;54397;47.506;19.158;2024-03-25T12:18:04;16.01;50.75
67572;SHT31;54397;47.506;19.158;2024-03-25T12:21:25;15.29;49.38
67572;SHT31;54397;47.506;19.158;2024-03-25T12:24:48;15.33;44.13
67572;SHT31;54397;47.506;19.158;2024-03-25T12:28:09;14.06;46.98
67572;SHT31;54397;47.506;19.158;2024-03-25T12:31:30;13.95;48.92
67572;SHT31;54397;47.506;19.158;2024-03-25T12:34:52;13.81;50.37
67572;SHT31;54397;47.506;19.158;2024-03-25T12:41:47;12.95;52.10
67572;SHT31;54397;47.506;19.158;2024-03-25T12:45:13;13.31;52.43
67572;SHT31;54397;47.506;19.158;2024-03-25T12:48:34;13.75;52.06
67572;SHT31;54397;47.506;19.158;2024-03-25T12:51:54;14.10;52.05
67572;SHT31;54397;47.506;19.158;2024-03-25T12:55:15;14.26;49.93
67572;SHT31;54397;47.506;19.158;2024-03-25T12:58:40;13.76;48.26
67572;SHT31;54397;47.506;19.158;2024-03-25T13:02:01;13.79;48.73
67572;SHT31;54397;47.506;19.158;2024-03-25T13:05:23;13.24;49.10
67572;SHT31;54397;47.506;19.158;2024-03-25T13:08:43;13.14;48.65
67572;SHT31;54397;47.506;19.158;2024-03-25T13:12:04;12.82;48.79
67572;SHT31;54397;47.506;19.158;2024-03-25T13:15:28;12.89;48.56
67572;SHT31;54397;47.506;19.158;2024-03-25T13:18:48;13.16;49.81
67572;SHT31;54397;47.506;19.158;2024-03-25T13:22:10;13.17;50.07
67572;SHT31;54397;47.506;19.158;2024-03-25T13:25:30;13.37;49.55
67572;SHT31;54397;47.506;19.158;2024-03-25T13:28:52;12.89;50.49
67572;SHT31;54397;47.506;19.158;2024-03-25T13:32:13;12.68;51.20
67572;SHT31;54397;47.506;19.158;2024-03-25T13:35:34;12.44;52.00
67572;SHT31;54397;47.506;19.158;2024-03-25T13:39:01;12.85;56.95
67572;SHT31;54397;47.506;19.158;2024-03-25T13:42:24;13.20;51.68
67572;SHT31;54397;47.506;19.158;2024-03-25T13:45:48;13.65;54.93
67572;SHT31;54397;47.506;19.158;2024-03-25T13:49:09;13.82;53.87
67572;SHT31;54397;47.506;19.158;2024-03-25T13:52:31;14.20;54.83
67572;SHT31;54397;47.506;19.158;2024-03-25T13:55:54;14.50;52.60
67572;SHT31;54397;47.506;19.158;2024-03-25T13:59:17;14.20;47.73
67572;SHT31;54397;47.506;19.158;2024-03-25T14:02:38;13.66;49.59
67572;SHT31;54397;47.506;19.158;2024-03-25T14:05:59;13.07;49.36
67572;SHT31;54397;47.506;19.158;2024-03-25T14:09:27;13.02;49.29
67572;SHT31;54397;47.506;19.158;2024-03-25T14:12:48;13.10;49.65
67572;SHT31;54397;47.506;19.158;2024-03-25T14:16:11;13.02;48.19
67572;SHT31;54397;47.506;19.158;2024-03-25T14:19:32;12.90;48.54
67572;SHT31;54397;47.506;19.158;2024-03-25T14:22:52;12.78;48.80
67572;SHT31;54397;47.506;19.158;2024-03-25T14:26:13;12.75;48.33
67572;SHT31;54397;47.506;19.158;2024-03-25T14:29:36;12.79;46.56
67572;SHT31;54397;47.506;19.158;2024-03-25T14:32:57;12.35;46.12
67572;SHT31;54397;47.506;19.158;2024-03-25T14:36:18;12.69;45.79
67572;SHT31;54397;47.506;19.158;2024-03-25T14:39:41;12.82;45.61
67572;SHT31;54397;47.506;19.158;2024-03-25T14:43:02;13.02;46.02
67572;SHT31;54397;47.506;19.158;2024-03-25T14:46:25;13.03;45.50
67572;SHT31;54397;47.506;19.158;2024-03-25T14:49:46;13.54;44.63
67572;SHT31;54397;47.506;19.158;2024-03-25T14:53:09;13.58;45.36
67572;SHT31;54397;47.506;19.158;2024-03-25T14:56:29;13.81;45.38
67572;SHT31;54397;47.506;19.158;2024-03-25T14:59:50;13.74;45.49
67572;SHT31;54397;47.506;19.158;2024-03-25T15:03:11;13.65;45.62
67572;SHT31;54397;47.506;19.158;2024-03-25T15:06:32;13.79;46.90
67572;SHT31;54397;47.506;19.158;2024-03-25T15:09:55;13.85;47.86
67572;SHT31;54397;47.506;19.158;2024-03-25T15:13:18;14.05;47.98
67572;SHT31;54397;47.506;19.158;2024-03-25T15:16:39;13.87;48.81
67572;SHT31;54397;47.506;19.158;2024-03-25T15:20:00;13.85;49.01
67572;SHT31;54397;47.506;19.158;2024-03-25T15:23:21;13.62;49.26
67572;SHT31;54397;47.506;19.158;2024-03-25T15:26:44;13.66;50.75
67572;SHT31;54397;47.506;19.158;2024-03-25T15:30:08;13.62;49.83
67572;SHT31;54397;47.506;19.158;2024-03-25T15:33:29;13.65;50.11
67572;SHT31;54397;47.506;19.158;2024-03-25T15:36:53;13.50;49.98
67572;SHT31;54397;47.506;19.158;2024-03-25T15:40:13;13.54;50.31
67572;SHT31;54397;47.506;19.158;2024-03-25T15:43:41;13.50;50.53
67572;SHT31;54397;47.506;19.158;2024-03-25T15:47:04;13.23;49.68
67572;SHT31;54397;47.506;19.158;2024-03-25T15:50:29;12.69;50.86
67572;SHT31;54397;47.506;19.158;2024-03-25T15:53:49;13.04;49.76
67572;SHT31;54397;47.506;19.158;2024-03-25T15:57:12;13.00;49.42
67572;SHT31;54397;47.506;19.158;2024-03-25T16:00:36;13.02;49.16
67572;SHT31;54397;47.506;19.158;2024-03-25T16:03:59;13.18;47.95
67572;SHT31;54397;47.506;19.158;2024-03-25T16:07:20;12.82;49.00
67572;SHT31;54397;47.506;19.158;2024-03-25T16:10:41;12.61;49.95
67572;SHT31;54397;47.506;19.158;2024-03-25T16:14:01;12.58;50.02
67572;SHT31;54397;47.506;19.158;2024-03-25T16:17:25;12.56;52.05
67572;SHT31;54397;47.506;19.158;2024-03-25T16:20:46;13.65;64.68
67572;SHT31;54397;47.506;19.158;2024-03-25T16:24:07;14.31;58.94
67572;SHT31;54397;47.506;19.158;2024-03-25T16:27:30;14.58;56.96
67572;SHT31;54397;47.506;19.158;2024-03-25T16:30:50;14.57;48.75
67572;SHT31;54397;47.506;19.158;2024-03-25T16:34:14;14.10;47.57
67572;SHT31;54397;47.506;19.158;2024-03-25T16:37:37;13.85;48.27
67572;SHT31;54397;47.506;19.158;2024-03-25T16:41:01;13.54;48.80
67572;SHT31;54397;47.506;19.158;2024-03-25T16:44:22;13.27;48.54
67572;SHT31;54397;47.506;19.158;2024-03-25T16:47:42;13.26;47.88
67572;SHT31;54397;47.506;19.158;2024-03-25T16:51:03;13.07;48.65
67572;SHT31;54397;47.506;19.158;2024-03-25T16:54:27;13.09;48.75
67572;SHT31;54397;47.506;19.158;2024-03-25T16:57:48;12.85;49.43
67572;SHT31;54397;47.506;19.158;2024-03-25T17:01:09;12.83;49.71
67572;SHT31;54397;47.506;19.158;2024-03-25T17:04:30;12.75;49.83
67572;SHT31;54397;47.506;19.158;2024-03-25T17:07:50;12.66;50.30
67572;SHT31;54397;47.506;19.158;2024-03-25T17:11:13;12.69;50.13
67572;SHT31;54397;47.506;19.158;2024-03-25T17:14:38;12.49;50.25
67572;SHT31;54397;47.506;19.158;2024-03-25T17:18:07;12.46;51.08
67572;SHT31;54397;47.506;19.158;2024-03-25T17:21:28;12.66;50.89
67572;SHT31;54397;47.506;19.158;2024-03-25T17:24:52;12.58;51.10
67572;SHT31;54397;47.506;19.158;2024-03-25T17:28:15;12.45;51.68
67572;SHT31;54397;47.506;19.158;2024-03-25T17:31:35;12.45;51.67
67572;SHT31;54397;47.506;19.158;2024-03-25T17:35:01;12.42;51.83
67572;SHT31;54397;47.506;19.158;2024-03-25T17:38:21;12.42;51.93
67572;SHT31;54397;47.506;19.158;2024-03-25T17:41:42;12.27;51.83
67572;SHT31;54397;47.506;19.158;2024-03-25T17:45:03;12.14;53.15
67572;SHT31;54397;47.506;19.158;2024-03-25T17:48:24;12.25;52.92
67572;SHT31;54397;47.506;19.158;2024-03-25T17:51:48;12.18;53.26
67572;SHT31;54397;47.506;19.158;2024-03-25T17:55:14;12.21;52.64
67572;SHT31;54397;47.506;19.158;2024-03-25T17:58:37;12.01;53.05
67572;SHT31;54397;47.506;19.158;2024-03-25T18:01:57;12.04;53.06
67572;SHT31;54397;47.506;19.158;2024-03-25T18:05:20;11.89;53.57
67572;SHT31;54397;47.506;19.158;2024-03-25T18:08:41;12.00;53.68
67572;SHT31;54397;47.506;19.158;2024-03-25T18:12:05;11.98;53.84
67572;SHT31;54397;47.506;19.158;2024-03-25T18:15:28;11.86;54.15
67572;SHT31;54397;47.506;19.158;2024-03-25T18:18:51;11.61;54.94
67572;SHT31;54397;47.506;19.158;2024-03-25T18:22:12;11.62;55.78
67572;SHT31;54397;47.506;19.158;2024-03-25T18:25:36;11.65;55.45
67572;SHT31;54397;47.506;19.158;2024-03-25T18:29:01;11.54;56.03
67572;SHT31;54397;47.506;19.158;2024-03-25T18:32:23;11.45;56.32
67572;SHT31;54397;47.506;19.158;2024-03-25T18:35:43;11.49;55.61
67572;SHT31;54397;47.506;19.158;2024-03-25T18:39:04;11.32;56.94
67572;SHT31;54397;47.506;19.158;2024-03-25T18:42:28;11.34;55.99
67572;SHT31;54397;47.506;19.158;2024-03-25T18:45:49;11.22;56.37
67572;SHT31;54397;47.506;19.158;2024-03-25T18:49:10;11.06;56.88
67572;SHT31;54397;47.506;19.158;2024-03-25T18:52:37;11.08;56.66
67572;SHT31;54397;47.506;19.158;2024-03-25T18:56:01;10.81;57.44
67572;SHT31;54397;47.506;19.158;2024-03-25T18:59:22;10.57;57.73
67572;SHT31;54397;47.506;19.158;2024-03-25T19:02:44;10.70;57.61
67572;SHT31;54397;47.506;19.158;2024-03-25T19:06:05;10.67;57.69
67572;SHT31;54397;47.506;19.158;2024-03-25T19:09:28;10.60;58.03
67572;SHT31;54397;47.506;19.158;2024-03-25T19:12:49;10.42;58.87
67572;SHT31;54397;47.506;19.158;2024-03-25T19:16:09;10.31;58.49
67572;SHT31;54397;47.506;19.158;2024-03-25T19:19:35;10.26;58.02
67572;SHT31;54397;47.506;19.158;2024-03-25T19:22:56;10.45;57.97
67572;SHT31;54397;47.506;19.158;2024-03-25T19:26:19;10.39;58.25
67572;SHT31;54397;47.506;19.158;2024-03-25T19:29:42;10.14;59.08
67572;SHT31;54397;47.506;19.158;2024-03-25T19:33:03;9.97;59.20
67572;SHT31;54397;47.506;19.158;2024-03-25T19:36:26;9.98;58.66
67572;SHT31;54397;47.506;19.158;2024-03-25T19:39:47;9.84;58.95
67572;SHT31;54397;47.506;19.158;2024-03-25T19:43:08;9.70;59.23
67572;SHT31;54397;47.506;19.158;2024-03-25T19:46:32;9.78;58.66
67572;SHT31;54397;47.506;19.158;2024-03-25T19:49:53;9.58;59.04
67572;SHT31;54397;47.506;19.158;2024-03-25T19:53:16;9.56;59.04
67572;SHT31;54397;47.506;19.158;2024-03-25T19:56:36;9.78;58.03
67572;SHT31;54397;47.506;19.158;2024-03-25T19:59:57;9.74;58.26
67572;SHT31;54397;47.506;19.158;2024-03-25T20:03:22;9.70;58.57
67572;SHT31;54397;47.506;19.158;2024-03-25T20:06:46;9.47;59.19
67572;SHT31;54397;47.506;19.158;2024-03-25T20:10:07;9.48;59.68
67572;SHT31;54397;47.506;19.158;2024-03-25T20:13:30;9.47;59.64
67572;SHT31;54397;47.506;19.158;2024-03-25T20:16:50;9.40;59.72
67572;SHT31;54397;47.506;19.158;2024-03-25T20:20:11;9.32;59.60
67572;SHT31;54397;47.506;19.158;2024-03-25T20:23:32;9.27;60.12
67572;SHT31;54397;47.506;19.158;2024-03-25T20:26:56;9.27;60.31
67572;SHT31;54397;47.506;19.158;2024-03-25T20:30:19;9.18;60.55
67572;SHT31;54397;47.506;19.158;2024-03-25T20:33:42;9.06;60.71
67572;SHT31;54397;47.506;19.158;2024-03-25T20:37:04;9.08;60.39
67572;SHT31;54397;47.506;19.158;2024-03-25T20:40:25;9.06;60.13
67572;SHT31;54397;47.506;19.158;2024-03-25T20:43:48;9.05;59.95
67572;SHT31;54397;47.506;19.158;2024-03-25T20:47:12;9.06;59.80
67572;SHT31;54397;47.506;19.158;2024-03-25T20:50:38;8.77;60.71
67572;SHT31;54397;47.506;19.158;2024-03-25T20:54:01;8.64;60.46
67572;SHT31;54397;47.506;19.158;2024-03-25T20:57:22;8.63;60.74
67572;SHT31;54397;47.506;19.158;2024-03-25T21:00:46;8.70;60.21
67572;SHT31;54397;47.506;19.158;2024-03-25T21:04:06;8.56;60.49
67572;SHT31;54397;47.506;19.158;2024-03-25T21:07:27;8.40;61.35
67572;SHT31;54397;47.506;19.158;2024-03-25T21:10:49;8.36;61.35
67572;SHT31;54397;47.506;19.158;2024-03-25T21:14:10;8.37;61.12